sensor_id;sensor_type;location;lat;lon;timestamp;P1;durP1;ratioP1;P2;durP2;ratioP2
823;SDS011;373;49.342;8.146;2022-09-09T00:00:46;2.50;;;0.75;;
823;SDS011;373;49.342;8.146;2022-09-09T00:03:16;0.65;;;0.65;;
823;SDS011;373;49.342;8.146;2022-09-09T00:05:50;1.90;;;0.90;;
823;SDS011;373;49.342;8.146;2022-09-09T00:08:27;3.70;;;0.85;;
823;SDS011;373;49.342;8.146;2022-09-09T00:11:01;2.60;;;1.00;;
823;SDS011;373;49.342;8.146;2022-09-09T00:13:33;2.42;;;1.13;;
823;SDS011;373;49.342;8.146;2022-09-09T00:16:04;1.10;;;0.85;;
823;SDS011;373;49.342;8.146;2022-09-09T00:18:41;2.17;;;0.90;;
823;SDS011;373;49.342;8.146;2022-09-09T00:21:17;1.90;;;0.80;;
823;SDS011;373;49.342;8.146;2022-09-09T00:23:48;2.35;;;1.13;;
823;SDS011;373;49.342;8.146;2022-09-09T00:26:19;1.27;;;0.70;;
823;SDS011;373;49.342;8.146;2022-09-09T00:28:51;2.20;;;0.90;;
823;SDS011;373;49.342;8.146;2022-09-09T00:31:26;1.80;;;0.90;;
823;SDS011;373;49.342;8.146;2022-09-09T00:33:55;0.93;;;0.57;;
823;SDS011;373;49.342;8.146;2022-09-09T00:36:30;1.70;;;0.63;;
823;SDS011;373;49.342;8.146;2022-09-09T00:39:00;3.25;;;0.82;;
823;SDS011;373;49.342;8.146;2022-09-09T00:41:30;2.13;;;0.82;;
823;SDS011;373;49.342;8.146;2022-09-09T00:44:16;2.10;;;1.00;;
823;SDS011;373;49.342;8.146;2022-09-09T00:46:54;1.33;;;0.77;;
823;SDS011;373;49.342;8.146;2022-09-09T00:49:32;1.25;;;0.70;;
823;SDS011;373;49.342;8.146;2022-09-09T00:52:12;1.83;;;1.00;;
823;SDS011;373;49.342;8.146;2022-09-09T00:54:51;4.30;;;1.15;;
823;SDS011;373;49.342;8.146;2022-09-09T00:57:30;2.20;;;0.98;;
823;SDS011;373;49.342;8.146;2022-09-09T01:02:47;2.92;;;1.05;;
823;SDS011;373;49.342;8.146;2022-09-09T01:05:30;1.90;;;0.70;;
823;SDS011;373;49.342;8.146;2022-09-09T01:08:05;1.55;;;0.60;;
823;SDS011;373;49.342;8.146;2022-09-09T01:10:41;2.38;;;1.13;;
823;SDS011;373;49.342;8.146;2022-09-09T01:13:22;1.35;;;0.60;;
823;SDS011;373;49.342;8.146;2022-09-09T01:15:52;1.55;;;0.68;;
823;SDS011;373;49.342;8.146;2022-09-09T01:18:21;1.45;;;0.57;;
823;SDS011;373;49.342;8.146;2022-09-09T01:20:54;1.50;;;0.70;;
823;SDS011;373;49.342;8.146;2022-09-09T01:26:30;2.40;;;0.75;;
823;SDS011;373;49.342;8.146;2022-09-09T01:29:06;0.65;;;0.45;;
823;SDS011;373;49.342;8.146;2022-09-09T01:31:38;3.53;;;0.70;;
823;SDS011;373;49.342;8.146;2022-09-09T01:34:11;3.50;;;1.05;;
823;SDS011;373;49.342;8.146;2022-09-09T01:36:41;2.22;;;0.75;;
823;SDS011;373;49.342;8.146;2022-09-09T01:39:12;4.75;;;1.30;;
823;SDS011;373;49.342;8.146;2022-09-09T01:41:42;1.45;;;0.60;;
823;SDS011;373;49.342;8.146;2022-09-09T01:44:12;2.08;;;0.63;;
823;SDS011;373;49.342;8.146;2022-09-09T01:46:43;1.23;;;0.60;;
823;SDS011;373;49.342;8.146;2022-09-09T01:49:16;3.30;;;0.60;;
823;SDS011;373;49.342;8.146;2022-09-09T01:51:44;1.98;;;0.63;;
823;SDS011;373;49.342;8.146;2022-09-09T01:54:15;0.75;;;0.50;;
823;SDS011;373;49.342;8.146;2022-09-09T01:56:46;2.65;;;0.90;;
823;SDS011;373;49.342;8.146;2022-09-09T01:59:27;1.02;;;0.50;;
823;SDS011;373;49.342;8.146;2022-09-09T02:02:07;1.67;;;0.70;;
823;SDS011;373;49.342;8.146;2022-09-09T02:04:44;2.38;;;0.63;;
823;SDS011;373;49.342;8.146;2022-09-09T02:07:21;2.20;;;0.80;;
823;SDS011;373;49.342;8.146;2022-09-09T02:09:57;1.58;;;0.60;;
823;SDS011;373;49.342;8.146;2022-09-09T02:12:29;1.95;;;0.55;;
823;SDS011;373;49.342;8.146;2022-09-09T02:15:02;1.67;;;0.70;;
823;SDS011;373;49.342;8.146;2022-09-09T02:17:43;3.60;;;0.70;;
823;SDS011;373;49.342;8.146;2022-09-09T02:20:16;1.48;;;0.68;;
823;SDS011;373;49.342;8.146;2022-09-09T02:22:56;2.67;;;0.73;;
823;SDS011;373;49.342;8.146;2022-09-09T02:25:26;1.52;;;0.98;;
823;SDS011;373;49.342;8.146;2022-09-09T02:28:04;1.88;;;0.60;;
823;SDS011;373;49.342;8.146;2022-09-09T02:30:35;1.17;;;0.38;;
823;SDS011;373;49.342;8.146;2022-09-09T02:33:04;0.98;;;0.68;;
823;SDS011;373;49.342;8.146;2022-09-09T02:35:43;2.50;;;0.50;;
823;SDS011;373;49.342;8.146;2022-09-09T02:38:16;2.35;;;0.70;;
823;SDS011;373;49.342;8.146;2022-09-09T02:41:01;1.42;;;0.63;;
823;SDS011;373;49.342;8.146;2022-09-09T02:43:32;1.77;;;0.60;;
823;SDS011;373;49.342;8.146;2022-09-09T02:46:06;2.28;;;1.27;;
823;SDS011;373;49.342;8.146;2022-09-09T02:48:44;2.60;;;1.10;;
823;SDS011;373;49.342;8.146;2022-09-09T02:51:22;3.28;;;1.27;;
823;SDS011;373;49.342;8.146;2022-09-09T02:53:57;3.88;;;1.10;;
823;SDS011;373;49.342;8.146;2022-09-09T02:56:31;3.47;;;1.20;;
823;SDS011;373;49.342;8.146;2022-09-09T02:59:04;2.13;;;1.02;;
823;SDS011;373;49.342;8.146;2022-09-09T03:01:33;2.67;;;1.00;;
823;SDS011;373;49.342;8.146;2022-09-09T03:04:01;4.13;;;1.38;;
823;SDS011;373;49.342;8.146;2022-09-09T03:06:30;2.17;;;1.02;;
823;SDS011;373;49.342;8.146;2022-09-09T03:09:06;1.98;;;1.27;;
823;SDS011;373;49.342;8.146;2022-09-09T03:11:35;2.72;;;1.33;;
823;SDS011;373;49.342;8.146;2022-09-09T03:14:05;2.03;;;1.55;;
823;SDS011;373;49.342;8.146;2022-09-09T03:16:35;2.30;;;1.40;;
823;SDS011;373;49.342;8.146;2022-09-09T03:19:02;1.30;;;1.08;;
823;SDS011;373;49.342;8.146;2022-09-09T03:21:29;2.22;;;1.30;;
823;SDS011;373;49.342;8.146;2022-09-09T03:23:58;4.78;;;1.48;;
823;SDS011;373;49.342;8.146;2022-09-09T03:26:25;4.68;;;1.40;;
823;SDS011;373;49.342;8.146;2022-09-09T03:28:52;2.47;;;1.17;;
823;SDS011;373;49.342;8.146;2022-09-09T03:31:23;3.42;;;1.52;;
823;SDS011;373;49.342;8.146;2022-09-09T03:33:51;4.05;;;1.63;;
823;SDS011;373;49.342;8.146;2022-09-09T03:36:20;3.38;;;1.40;;
823;SDS011;373;49.342;8.146;2022-09-09T03:38:47;1.83;;;1.45;;
823;SDS011;373;49.342;8.146;2022-09-09T03:41:14;5.18;;;1.75;;
823;SDS011;373;49.342;8.146;2022-09-09T03:43:42;4.15;;;2.00;;
823;SDS011;373;49.342;8.146;2022-09-09T03:46:09;2.60;;;1.77;;
823;SDS011;373;49.342;8.146;2022-09-09T03:48:38;3.15;;;1.40;;
823;SDS011;373;49.342;8.146;2022-09-09T03:51:05;3.00;;;1.63;;
823;SDS011;373;49.342;8.146;2022-09-09T03:53:33;2.60;;;1.40;;
823;SDS011;373;49.342;8.146;2022-09-09T03:56:02;2.53;;;1.77;;
823;SDS011;373;49.342;8.146;2022-09-09T03:58:30;5.28;;;1.58;;
823;SDS011;373;49.342;8.146;2022-09-09T04:01:05;3.97;;;1.88;;
823;SDS011;373;49.342;8.146;2022-09-09T04:03:34;3.60;;;1.60;;
823;SDS011;373;49.342;8.146;2022-09-09T04:06:04;2.47;;;1.70;;
823;SDS011;373;49.342;8.146;2022-09-09T04:08:33;5.90;;;2.13;;
823;SDS011;373;49.342;8.146;2022-09-09T04:11:01;3.42;;;2.03;;
823;SDS011;373;49.342;8.146;2022-09-09T04:13:31;2.60;;;1.90;;
823;SDS011;373;49.342;8.146;2022-09-09T04:16:01;5.65;;;1.75;;
823;SDS011;373;49.342;8.146;2022-09-09T04:18:30;2.35;;;1.52;;
823;SDS011;373;49.342;8.146;2022-09-09T04:20:58;4.85;;;2.08;;
823;SDS011;373;49.342;8.146;2022-09-09T04:23:30;2.80;;;1.50;;
823;SDS011;373;49.342;8.146;2022-09-09T04:25:59;2.72;;;1.73;;
823;SDS011;373;49.342;8.146;2022-09-09T04:28:28;2.55;;;1.50;;
823;SDS011;373;49.342;8.146;2022-09-09T04:31:03;2.10;;;1.45;;
823;SDS011;373;49.342;8.146;2022-09-09T04:33:33;1.98;;;1.13;;
823;SDS011;373;49.342;8.146;2022-09-09T04:36:00;4.30;;;1.60;;
823;SDS011;373;49.342;8.146;2022-09-09T04:38:31;1.90;;;1.27;;
823;SDS011;373;49.342;8.146;2022-09-09T04:40:58;2.28;;;1.30;;
823;SDS011;373;49.342;8.146;2022-09-09T04:43:25;3.25;;;1.60;;
823;SDS011;373;49.342;8.146;2022-09-09T04:45:53;2.83;;;1.30;;
823;SDS011;373;49.342;8.146;2022-09-09T04:48:23;4.00;;;1.58;;
823;SDS011;373;49.342;8.146;2022-09-09T04:50:57;4.18;;;1.40;;
823;SDS011;373;49.342;8.146;2022-09-09T04:53:26;3.63;;;1.10;;
823;SDS011;373;49.342;8.146;2022-09-09T04:56:02;3.03;;;0.82;;
823;SDS011;373;49.342;8.146;2022-09-09T04:58:33;3.58;;;1.23;;
823;SDS011;373;49.342;8.146;2022-09-09T05:01:05;4.65;;;1.20;;
823;SDS011;373;49.342;8.146;2022-09-09T05:03:33;3.33;;;1.00;;
823;SDS011;373;49.342;8.146;2022-09-09T05:06:05;2.05;;;1.00;;
823;SDS011;373;49.342;8.146;2022-09-09T05:08:35;2.05;;;1.40;;
823;SDS011;373;49.342;8.146;2022-09-09T05:11:11;4.18;;;1.10;;
823;SDS011;373;49.342;8.146;2022-09-09T05:13:40;2.15;;;1.00;;
823;SDS011;373;49.342;8.146;2022-09-09T05:16:08;2.88;;;1.20;;
823;SDS011;373;49.342;8.146;2022-09-09T05:18:36;4.22;;;0.88;;
823;SDS011;373;49.342;8.146;2022-09-09T05:21:05;2.00;;;1.13;;
823;SDS011;373;49.342;8.146;2022-09-09T05:23:33;3.05;;;1.38;;
823;SDS011;373;49.342;8.146;2022-09-09T05:26:02;2.05;;;1.17;;
823;SDS011;373;49.342;8.146;2022-09-09T05:28:33;2.65;;;1.25;;
823;SDS011;373;49.342;8.146;2022-09-09T05:31:02;3.80;;;1.27;;
823;SDS011;373;49.342;8.146;2022-09-09T05:33:33;3.30;;;1.00;;
823;SDS011;373;49.342;8.146;2022-09-09T05:36:03;4.32;;;1.40;;
823;SDS011;373;49.342;8.146;2022-09-09T05:38:32;1.60;;;0.80;;
823;SDS011;373;49.342;8.146;2022-09-09T05:40:59;3.33;;;1.30;;
823;SDS011;373;49.342;8.146;2022-09-09T05:43:29;1.10;;;0.80;;
823;SDS011;373;49.342;8.146;2022-09-09T05:45:58;4.43;;;1.15;;
823;SDS011;373;49.342;8.146;2022-09-09T05:48:28;2.08;;;0.98;;
823;SDS011;373;49.342;8.146;2022-09-09T05:50:57;1.95;;;1.13;;
823;SDS011;373;49.342;8.146;2022-09-09T05:53:25;1.60;;;0.90;;
823;SDS011;373;49.342;8.146;2022-09-09T05:55:58;3.38;;;1.10;;
823;SDS011;373;49.342;8.146;2022-09-09T05:58:26;2.35;;;0.85;;
823;SDS011;373;49.342;8.146;2022-09-09T06:01:01;1.75;;;0.88;;
823;SDS011;373;49.342;8.146;2022-09-09T06:03:30;3.03;;;1.00;;
823;SDS011;373;49.342;8.146;2022-09-09T06:05:58;4.68;;;0.80;;
823;SDS011;373;49.342;8.146;2022-09-09T06:08:26;2.83;;;0.73;;
823;SDS011;373;49.342;8.146;2022-09-09T06:11:00;1.02;;;0.63;;
823;SDS011;373;49.342;8.146;2022-09-09T06:13:28;4.40;;;1.33;;
823;SDS011;373;49.342;8.146;2022-09-09T06:15:56;1.33;;;1.05;;
823;SDS011;373;49.342;8.146;2022-09-09T06:18:26;2.50;;;0.98;;
823;SDS011;373;49.342;8.146;2022-09-09T06:20:54;2.75;;;1.13;;
823;SDS011;373;49.342;8.146;2022-09-09T06:23:22;2.00;;;0.77;;
823;SDS011;373;49.342;8.146;2022-09-09T06:25:49;2.30;;;0.70;;
823;SDS011;373;49.342;8.146;2022-09-09T06:28:17;4.07;;;0.73;;
823;SDS011;373;49.342;8.146;2022-09-09T06:30:45;3.60;;;0.98;;
823;SDS011;373;49.342;8.146;2022-09-09T06:33:12;2.60;;;1.23;;
823;SDS011;373;49.342;8.146;2022-09-09T06:35:41;3.60;;;1.10;;
823;SDS011;373;49.342;8.146;2022-09-09T06:38:10;2.38;;;1.30;;
823;SDS011;373;49.342;8.146;2022-09-09T06:40:37;2.40;;;1.25;;
823;SDS011;373;49.342;8.146;2022-09-09T06:43:05;4.47;;;1.42;;
823;SDS011;373;49.342;8.146;2022-09-09T06:45:40;4.22;;;1.25;;
823;SDS011;373;49.342;8.146;2022-09-09T06:48:07;3.03;;;1.45;;
823;SDS011;373;49.342;8.146;2022-09-09T06:50:34;5.00;;;1.35;;
823;SDS011;373;49.342;8.146;2022-09-09T06:53:04;1.98;;;0.93;;
823;SDS011;373;49.342;8.146;2022-09-09T06:55:31;2.35;;;1.00;;
823;SDS011;373;49.342;8.146;2022-09-09T06:57:58;2.45;;;0.80;;
823;SDS011;373;49.342;8.146;2022-09-09T07:00:25;2.63;;;0.80;;
823;SDS011;373;49.342;8.146;2022-09-09T07:02:52;2.60;;;0.88;;
823;SDS011;373;49.342;8.146;2022-09-09T07:05:21;3.05;;;1.05;;
823;SDS011;373;49.342;8.146;2022-09-09T07:07:48;5.60;;;1.30;;
823;SDS011;373;49.342;8.146;2022-09-09T07:10:20;4.30;;;1.20;;
823;SDS011;373;49.342;8.146;2022-09-09T07:12:50;4.63;;;1.10;;
823;SDS011;373;49.342;8.146;2022-09-09T07:15:19;2.80;;;1.00;;
823;SDS011;373;49.342;8.146;2022-09-09T07:17:48;2.47;;;0.90;;
823;SDS011;373;49.342;8.146;2022-09-09T07:20:16;2.53;;;0.80;;
823;SDS011;373;49.342;8.146;2022-09-09T07:22:43;3.67;;;1.38;;
823;SDS011;373;49.342;8.146;2022-09-09T07:25:10;2.28;;;1.00;;
823;SDS011;373;49.342;8.146;2022-09-09T07:27:39;3.17;;;1.00;;
823;SDS011;373;49.342;8.146;2022-09-09T07:30:07;4.20;;;0.98;;
823;SDS011;373;49.342;8.146;2022-09-09T07:32:34;1.67;;;1.17;;
823;SDS011;373;49.342;8.146;2022-09-09T07:35:02;2.85;;;1.30;;
823;SDS011;373;49.342;8.146;2022-09-09T07:37:29;3.65;;;0.80;;
823;SDS011;373;49.342;8.146;2022-09-09T07:39:56;2.72;;;1.35;;
823;SDS011;373;49.342;8.146;2022-09-09T07:42:23;3.38;;;1.08;;
823;SDS011;373;49.342;8.146;2022-09-09T07:44:53;3.65;;;1.00;;
823;SDS011;373;49.342;8.146;2022-09-09T07:47:20;4.38;;;1.15;;
823;SDS011;373;49.342;8.146;2022-09-09T07:49:50;2.35;;;0.90;;
823;SDS011;373;49.342;8.146;2022-09-09T07:52:23;4.47;;;0.90;;
823;SDS011;373;49.342;8.146;2022-09-09T07:54:54;1.67;;;0.80;;
823;SDS011;373;49.342;8.146;2022-09-09T07:57:23;3.33;;;1.13;;
823;SDS011;373;49.342;8.146;2022-09-09T07:59:51;2.70;;;1.02;;
823;SDS011;373;49.342;8.146;2022-09-09T08:02:22;3.13;;;0.88;;
823;SDS011;373;49.342;8.146;2022-09-09T08:04:49;4.30;;;1.13;;
823;SDS011;373;49.342;8.146;2022-09-09T08:07:17;5.40;;;1.60;;
823;SDS011;373;49.342;8.146;2022-09-09T08:09:50;1.40;;;0.90;;
823;SDS011;373;49.342;8.146;2022-09-09T08:12:27;5.82;;;1.20;;
823;SDS011;373;49.342;8.146;2022-09-09T08:14:57;5.20;;;1.65;;
823;SDS011;373;49.342;8.146;2022-09-09T08:17:28;3.30;;;1.13;;
823;SDS011;373;49.342;8.146;2022-09-09T08:19:56;2.65;;;1.10;;
823;SDS011;373;49.342;8.146;2022-09-09T08:22:30;3.35;;;1.00;;
823;SDS011;373;49.342;8.146;2022-09-09T08:24:58;3.17;;;1.15;;
823;SDS011;373;49.342;8.146;2022-09-09T08:27:25;4.05;;;0.93;;
823;SDS011;373;49.342;8.146;2022-09-09T08:29:53;5.18;;;1.40;;
823;SDS011;373;49.342;8.146;2022-09-09T08:32:23;6.03;;;1.50;;
823;SDS011;373;49.342;8.146;2022-09-09T08:34:51;4.32;;;1.17;;
823;SDS011;373;49.342;8.146;2022-09-09T08:37:21;3.05;;;1.20;;
823;SDS011;373;49.342;8.146;2022-09-09T08:39:48;3.25;;;1.58;;
823;SDS011;373;49.342;8.146;2022-09-09T08:42:22;4.57;;;1.52;;
823;SDS011;373;49.342;8.146;2022-09-09T08:45:19;1.92;;;1.02;;
823;SDS011;373;49.342;8.146;2022-09-09T08:48:06;4.75;;;1.20;;
823;SDS011;373;49.342;8.146;2022-09-09T08:50:41;5.35;;;1.35;;
823;SDS011;373;49.342;8.146;2022-09-09T08:53:17;2.78;;;1.00;;
823;SDS011;373;49.342;8.146;2022-09-09T08:55:50;3.50;;;1.63;;
823;SDS011;373;49.342;8.146;2022-09-09T08:58:26;3.60;;;1.08;;
823;SDS011;373;49.342;8.146;2022-09-09T09:01:01;4.15;;;1.35;;
823;SDS011;373;49.342;8.146;2022-09-09T09:03:51;2.97;;;1.02;;
823;SDS011;373;49.342;8.146;2022-09-09T09:06:26;3.92;;;1.40;;
823;SDS011;373;49.342;8.146;2022-09-09T09:09:11;3.60;;;1.58;;
823;SDS011;373;49.342;8.146;2022-09-09T09:11:44;4.85;;;1.38;;
823;SDS011;373;49.342;8.146;2022-09-09T09:14:16;5.53;;;1.10;;
823;SDS011;373;49.342;8.146;2022-09-09T09:16:51;5.95;;;1.48;;
823;SDS011;373;49.342;8.146;2022-09-09T09:19:23;3.95;;;1.23;;
823;SDS011;373;49.342;8.146;2022-09-09T09:21:54;5.45;;;1.30;;
823;SDS011;373;49.342;8.146;2022-09-09T09:24:31;4.32;;;1.30;;
823;SDS011;373;49.342;8.146;2022-09-09T09:27:11;4.68;;;1.80;;
823;SDS011;373;49.342;8.146;2022-09-09T09:29:42;3.63;;;1.17;;
823;SDS011;373;49.342;8.146;2022-09-09T09:32:11;3.60;;;1.13;;
823;SDS011;373;49.342;8.146;2022-09-09T09:34:49;2.08;;;0.90;;
823;SDS011;373;49.342;8.146;2022-09-09T09:37:21;5.80;;;1.80;;
823;SDS011;373;49.342;8.146;2022-09-09T09:39:55;2.58;;;1.02;;
823;SDS011;373;49.342;8.146;2022-09-09T09:42:23;3.28;;;1.45;;
823;SDS011;373;49.342;8.146;2022-09-09T09:44:54;3.65;;;1.35;;
823;SDS011;373;49.342;8.146;2022-09-09T09:47:22;2.25;;;0.85;;
823;SDS011;373;49.342;8.146;2022-09-09T09:50:19;2.88;;;1.15;;
823;SDS011;373;49.342;8.146;2022-09-09T09:52:53;2.83;;;1.20;;
823;SDS011;373;49.342;8.146;2022-09-09T09:55:22;3.00;;;0.90;;
823;SDS011;373;49.342;8.146;2022-09-09T09:57:50;1.27;;;0.73;;
823;SDS011;373;49.342;8.146;2022-09-09T10:00:20;2.53;;;0.88;;
823;SDS011;373;49.342;8.146;2022-09-09T10:02:58;3.22;;;1.02;;
823;SDS011;373;49.342;8.146;2022-09-09T10:05:32;2.42;;;0.80;;
823;SDS011;373;49.342;8.146;2022-09-09T10:08:09;2.80;;;1.02;;
823;SDS011;373;49.342;8.146;2022-09-09T10:10:41;3.17;;;0.82;;
823;SDS011;373;49.342;8.146;2022-09-09T10:13:19;3.70;;;1.13;;
823;SDS011;373;49.342;8.146;2022-09-09T10:15:58;3.45;;;1.48;;
823;SDS011;373;49.342;8.146;2022-09-09T10:18:36;4.10;;;1.05;;
823;SDS011;373;49.342;8.146;2022-09-09T10:21:14;6.35;;;1.50;;
823;SDS011;373;49.342;8.146;2022-09-09T10:23:56;3.53;;;1.67;;
823;SDS011;373;49.342;8.146;2022-09-09T10:26:42;3.85;;;1.25;;
823;SDS011;373;49.342;8.146;2022-09-09T10:35:14;2.70;;;1.00;;
823;SDS011;373;49.342;8.146;2022-09-09T10:37:56;4.10;;;1.13;;
823;SDS011;373;49.342;8.146;2022-09-09T10:40:41;3.63;;;0.95;;
823;SDS011;373;49.342;8.146;2022-09-09T10:43:16;5.65;;;0.90;;
823;SDS011;373;49.342;8.146;2022-09-09T10:45:57;5.25;;;1.13;;
823;SDS011;373;49.342;8.146;2022-09-09T10:48:35;2.50;;;1.02;;
823;SDS011;373;49.342;8.146;2022-09-09T10:51:19;7.07;;;1.60;;
823;SDS011;373;49.342;8.146;2022-09-09T10:53:57;2.15;;;0.90;;
823;SDS011;373;49.342;8.146;2022-09-09T10:56:39;2.97;;;1.13;;
823;SDS011;373;49.342;8.146;2022-09-09T10:59:10;2.05;;;0.75;;
823;SDS011;373;49.342;8.146;2022-09-09T11:01:41;2.10;;;1.02;;
823;SDS011;373;49.342;8.146;2022-09-09T11:04:13;5.68;;;1.52;;
823;SDS011;373;49.342;8.146;2022-09-09T11:06:48;2.20;;;0.70;;
823;SDS011;373;49.342;8.146;2022-09-09T11:09:21;3.25;;;1.05;;
823;SDS011;373;49.342;8.146;2022-09-09T11:11:51;3.40;;;1.08;;
823;SDS011;373;49.342;8.146;2022-09-09T11:14:21;1.45;;;0.70;;
823;SDS011;373;49.342;8.146;2022-09-09T11:16:55;2.67;;;1.02;;
823;SDS011;373;49.342;8.146;2022-09-09T11:19:28;2.25;;;1.10;;
823;SDS011;373;49.342;8.146;2022-09-09T11:22:02;2.53;;;1.15;;
823;SDS011;373;49.342;8.146;2022-09-09T11:24:36;2.35;;;0.77;;
823;SDS011;373;49.342;8.146;2022-09-09T11:27:08;3.03;;;1.08;;
823;SDS011;373;49.342;8.146;2022-09-09T11:32:43;3.20;;;0.90;;
823;SDS011;373;49.342;8.146;2022-09-09T11:35:31;2.28;;;0.90;;
823;SDS011;373;49.342;8.146;2022-09-09T11:38:21;2.92;;;0.98;;
823;SDS011;373;49.342;8.146;2022-09-09T11:40:55;4.53;;;1.35;;
823;SDS011;373;49.342;8.146;2022-09-09T11:43:27;2.83;;;1.02;;
823;SDS011;373;49.342;8.146;2022-09-09T11:45:57;1.90;;;0.95;;
823;SDS011;373;49.342;8.146;2022-09-09T11:48:37;3.53;;;1.00;;
823;SDS011;373;49.342;8.146;2022-09-09T11:51:09;3.85;;;0.95;;
823;SDS011;373;49.342;8.146;2022-09-09T11:53:47;1.65;;;0.90;;
823;SDS011;373;49.342;8.146;2022-09-09T11:56:25;2.10;;;1.13;;
823;SDS011;373;49.342;8.146;2022-09-09T11:58:57;3.20;;;0.80;;
823;SDS011;373;49.342;8.146;2022-09-09T12:01:28;3.20;;;1.00;;
823;SDS011;373;49.342;8.146;2022-09-09T12:04:10;2.33;;;0.82;;
823;SDS011;373;49.342;8.146;2022-09-09T12:06:41;2.33;;;0.55;;
823;SDS011;373;49.342;8.146;2022-09-09T12:09:16;2.90;;;0.82;;
823;SDS011;373;49.342;8.146;2022-09-09T12:12:05;4.43;;;1.02;;
823;SDS011;373;49.342;8.146;2022-09-09T12:14:35;4.43;;;1.08;;
823;SDS011;373;49.342;8.146;2022-09-09T12:17:17;2.33;;;1.17;;
823;SDS011;373;49.342;8.146;2022-09-09T12:19:47;3.38;;;1.25;;
823;SDS011;373;49.342;8.146;2022-09-09T12:22:17;4.28;;;1.02;;
823;SDS011;373;49.342;8.146;2022-09-09T12:24:55;3.10;;;1.30;;
823;SDS011;373;49.342;8.146;2022-09-09T12:27:30;3.88;;;0.90;;
823;SDS011;373;49.342;8.146;2022-09-09T12:30:03;3.03;;;1.10;;
823;SDS011;373;49.342;8.146;2022-09-09T12:32:34;3.67;;;1.00;;
823;SDS011;373;49.342;8.146;2022-09-09T12:35:03;2.47;;;1.00;;
823;SDS011;373;49.342;8.146;2022-09-09T12:37:37;1.70;;;0.60;;
823;SDS011;373;49.342;8.146;2022-09-09T12:40:18;2.15;;;0.73;;
823;SDS011;373;49.342;8.146;2022-09-09T12:42:48;1.30;;;0.70;;
823;SDS011;373;49.342;8.146;2022-09-09T12:45:17;3.80;;;0.93;;
823;SDS011;373;49.342;8.146;2022-09-09T12:47:46;2.50;;;0.90;;
823;SDS011;373;49.342;8.146;2022-09-09T12:50:18;2.53;;;0.73;;
823;SDS011;373;49.342;8.146;2022-09-09T12:52:47;1.73;;;0.50;;
823;SDS011;373;49.342;8.146;2022-09-09T12:55:18;0.88;;;0.32;;
823;SDS011;373;49.342;8.146;2022-09-09T12:57:47;0.82;;;0.25;;
823;SDS011;373;49.342;8.146;2022-09-09T13:00:17;0.65;;;0.40;;
823;SDS011;373;49.342;8.146;2022-09-09T13:02:49;1.13;;;0.50;;
823;SDS011;373;49.342;8.146;2022-09-09T13:05:19;0.35;;;0.20;;
823;SDS011;373;49.342;8.146;2022-09-09T13:07:49;1.23;;;0.60;;
823;SDS011;373;49.342;8.146;2022-09-09T13:10:20;2.15;;;0.60;;
823;SDS011;373;49.342;8.146;2022-09-09T13:12:53;1.33;;;0.43;;
823;SDS011;373;49.342;8.146;2022-09-09T13:15:21;1.42;;;0.50;;
823;SDS011;373;49.342;8.146;2022-09-09T13:17:52;1.77;;;0.52;;
823;SDS011;373;49.342;8.146;2022-09-09T13:20:22;1.90;;;0.90;;
823;SDS011;373;49.342;8.146;2022-09-09T13:22:50;2.35;;;0.75;;
823;SDS011;373;49.342;8.146;2022-09-09T13:25:23;2.63;;;0.50;;
823;SDS011;373;49.342;8.146;2022-09-09T13:27:55;2.97;;;0.40;;
823;SDS011;373;49.342;8.146;2022-09-09T13:30:25;1.17;;;0.40;;
823;SDS011;373;49.342;8.146;2022-09-09T13:33:04;1.15;;;0.63;;
823;SDS011;373;49.342;8.146;2022-09-09T13:35:45;0.82;;;0.40;;
823;SDS011;373;49.342;8.146;2022-09-09T13:38:14;6.32;;;1.02;;
823;SDS011;373;49.342;8.146;2022-09-09T13:40:51;1.40;;;0.50;;
823;SDS011;373;49.342;8.146;2022-09-09T13:43:21;1.17;;;0.40;;
823;SDS011;373;49.342;8.146;2022-09-09T13:45:54;1.25;;;0.57;;
823;SDS011;373;49.342;8.146;2022-09-09T13:48:23;0.88;;;0.55;;
823;SDS011;373;49.342;8.146;2022-09-09T13:50:54;2.03;;;0.60;;
823;SDS011;373;49.342;8.146;2022-09-09T13:53:23;1.10;;;0.30;;
823;SDS011;373;49.342;8.146;2022-09-09T13:55:50;0.98;;;0.50;;
823;SDS011;373;49.342;8.146;2022-09-09T13:58:17;1.58;;;0.30;;
823;SDS011;373;49.342;8.146;2022-09-09T14:00:46;0.32;;;0.28;;
823;SDS011;373;49.342;8.146;2022-09-09T14:03:15;1.30;;;0.43;;
823;SDS011;373;49.342;8.146;2022-09-09T14:05:42;0.80;;;0.30;;
823;SDS011;373;49.342;8.146;2022-09-09T14:08:12;1.60;;;0.63;;
823;SDS011;373;49.342;8.146;2022-09-09T14:10:45;1.63;;;0.63;;
823;SDS011;373;49.342;8.146;2022-09-09T14:13:12;1.13;;;0.63;;
823;SDS011;373;49.342;8.146;2022-09-09T14:15:40;2.63;;;0.82;;
823;SDS011;373;49.342;8.146;2022-09-09T14:18:09;1.70;;;0.63;;
823;SDS011;373;49.342;8.146;2022-09-09T14:20:39;1.73;;;0.77;;
823;SDS011;373;49.342;8.146;2022-09-09T14:23:09;1.95;;;0.60;;
823;SDS011;373;49.342;8.146;2022-09-09T14:25:39;1.63;;;0.55;;
823;SDS011;373;49.342;8.146;2022-09-09T14:28:07;2.33;;;0.98;;
823;SDS011;373;49.342;8.146;2022-09-09T14:30:36;4.95;;;1.98;;
823;SDS011;373;49.342;8.146;2022-09-09T14:33:05;4.18;;;1.70;;
823;SDS011;373;49.342;8.146;2022-09-09T14:35:33;5.50;;;1.48;;
823;SDS011;373;49.342;8.146;2022-09-09T14:38:01;6.72;;;1.67;;
823;SDS011;373;49.342;8.146;2022-09-09T14:43:11;3.50;;;0.98;;
823;SDS011;373;49.342;8.146;2022-09-09T14:45:39;1.00;;;0.45;;
823;SDS011;373;49.342;8.146;2022-09-09T14:48:06;0.90;;;0.25;;
823;SDS011;373;49.342;8.146;2022-09-09T14:50:35;3.08;;;0.75;;
823;SDS011;373;49.342;8.146;2022-09-09T14:53:05;3.78;;;0.93;;
823;SDS011;373;49.342;8.146;2022-09-09T14:55:32;1.42;;;0.40;;
823;SDS011;373;49.342;8.146;2022-09-09T14:57:59;1.25;;;0.30;;
823;SDS011;373;49.342;8.146;2022-09-09T15:00:26;1.05;;;0.57;;
823;SDS011;373;49.342;8.146;2022-09-09T15:02:53;4.53;;;0.50;;
823;SDS011;373;49.342;8.146;2022-09-09T15:05:21;0.38;;;0.30;;
823;SDS011;373;49.342;8.146;2022-09-09T15:07:50;0.68;;;0.38;;
823;SDS011;373;49.342;8.146;2022-09-09T15:10:17;1.27;;;0.40;;
823;SDS011;373;49.342;8.146;2022-09-09T15:12:44;1.15;;;0.60;;
823;SDS011;373;49.342;8.146;2022-09-09T15:15:11;1.27;;;0.50;;
823;SDS011;373;49.342;8.146;2022-09-09T15:17:39;1.08;;;0.43;;
823;SDS011;373;49.342;8.146;2022-09-09T15:20:06;1.30;;;0.50;;
823;SDS011;373;49.342;8.146;2022-09-09T15:22:34;0.98;;;0.30;;
823;SDS011;373;49.342;8.146;2022-09-09T15:25:04;0.73;;;0.20;;
823;SDS011;373;49.342;8.146;2022-09-09T15:27:33;0.32;;;0.32;;
823;SDS011;373;49.342;8.146;2022-09-09T15:30:00;0.50;;;0.35;;
823;SDS011;373;49.342;8.146;2022-09-09T15:32:27;0.90;;;0.30;;
823;SDS011;373;49.342;8.146;2022-09-09T15:34:55;1.70;;;0.30;;
823;SDS011;373;49.342;8.146;2022-09-09T15:37:22;1.27;;;0.47;;
823;SDS011;373;49.342;8.146;2022-09-09T15:39:49;1.95;;;0.50;;
823;SDS011;373;49.342;8.146;2022-09-09T15:42:17;0.98;;;0.60;;
823;SDS011;373;49.342;8.146;2022-09-09T15:44:44;2.35;;;1.30;;
823;SDS011;373;49.342;8.146;2022-09-09T15:47:12;1.45;;;0.40;;
823;SDS011;373;49.342;8.146;2022-09-09T15:49:40;1.45;;;0.30;;
823;SDS011;373;49.342;8.146;2022-09-09T15:52:08;1.73;;;0.65;;
823;SDS011;373;49.342;8.146;2022-09-09T15:54:36;1.52;;;0.47;;
823;SDS011;373;49.342;8.146;2022-09-09T15:57:05;0.65;;;0.30;;
823;SDS011;373;49.342;8.146;2022-09-09T15:59:35;0.20;;;0.20;;
823;SDS011;373;49.342;8.146;2022-09-09T16:02:02;1.73;;;0.40;;
823;SDS011;373;49.342;8.146;2022-09-09T16:04:30;1.00;;;0.40;;
823;SDS011;373;49.342;8.146;2022-09-09T16:07:00;1.67;;;0.50;;
823;SDS011;373;49.342;8.146;2022-09-09T16:09:28;2.05;;;0.50;;
823;SDS011;373;49.342;8.146;2022-09-09T16:11:57;2.13;;;0.50;;
823;SDS011;373;49.342;8.146;2022-09-09T16:14:26;3.42;;;0.80;;
823;SDS011;373;49.342;8.146;2022-09-09T16:16:54;0.95;;;0.40;;
823;SDS011;373;49.342;8.146;2022-09-09T16:19:21;1.42;;;0.70;;
823;SDS011;373;49.342;8.146;2022-09-09T16:21:49;1.80;;;0.70;;
823;SDS011;373;49.342;8.146;2022-09-09T16:24:17;0.40;;;0.40;;
823;SDS011;373;49.342;8.146;2022-09-09T16:26:46;0.52;;;0.50;;
823;SDS011;373;49.342;8.146;2022-09-09T16:29:14;1.40;;;0.50;;